sensor_id;sensor_type;location;lat;lon;timestamp;pressure;altitude;pressure_sealevel;temperature;humidity
12793;BME280;6460;42.684;23.260;2024-03-17T00:02:18;94822.66;;;8.58;91.76
12793;BME280;6460;42.684;23.260;2024-03-17T00:04:45;94814.56;;;8.82;91.07
12793;BME280;6460;42.684;23.260;2024-03-17T00:07:11;94817.91;;;8.79;90.75
12793;BME280;6460;42.684;23.260;2024-03-17T00:09:38;94817.91;;;8.79;91.30
12793;BME280;6460;42.684;23.260;2024-03-17T00:12:05;94829.44;;;8.67;91.42
12793;BME280;6460;42.684;23.260;2024-03-17T00:14:34;94822.19;;;8.31;92.65
12793;BME280;6460;42.684;23.260;2024-03-17T00:17:00;94826.66;;;8.39;93.46
12793;BME280;6460;42.684;23.260;2024-03-17T00:19:29;94818.72;;;8.31;93.04
12793;BME280;6460;42.684;23.260;2024-03-17T00:21:55;94812.59;;;8.30;93.62
12793;BME280;6460;42.684;23.260;2024-03-17T00:24:22;94822.19;;;8.43;93.15
12793;BME280;6460;42.684;23.260;2024-03-17T00:26:48;94817.75;;;8.35;92.80
12793;BME280;6460;42.684;23.260;2024-03-17T00:29:15;94821.09;;;8.32;92.76
12793;BME280;6460;42.684;23.260;2024-03-17T00:31:43;94815.97;;;8.52;92.45
12793;BME280;6460;42.684;23.260;2024-03-17T00:34:10;94818.28;;;8.41;92.32
12793;BME280;6460;42.684;23.260;2024-03-17T00:36:36;94811.47;;;8.19;93.33
12793;BME280;6460;42.684;23.260;2024-03-17T00:39:03;94820.34;;;8.11;93.77
12793;BME280;6460;42.684;23.260;2024-03-17T00:41:30;94812.44;;;8.15;93.89
12793;BME280;6460;42.684;23.260;2024-03-17T00:43:57;94817.00;;;8.02;94.23
12793;BME280;6460;42.684;23.260;2024-03-17T00:46:23;94819.25;;;8.24;93.94
12793;BME280;6460;42.684;23.260;2024-03-17T00:48:52;94819.81;;;8.18;93.62
12793;BME280;6460;42.684;23.260;2024-03-17T00:51:18;94821.44;;;7.98;94.38
12793;BME280;6460;42.684;23.260;2024-03-17T00:53:46;94820.22;;;7.83;95.14
12793;BME280;6460;42.684;23.260;2024-03-17T00:56:12;94821.44;;;7.98;94.63
12793;BME280;6460;42.684;23.260;2024-03-17T00:58:39;94821.94;;;8.12;93.74
12793;BME280;6460;42.684;23.260;2024-03-17T01:01:06;94821.25;;;8.15;93.86
12793;BME280;6460;42.684;23.260;2024-03-17T01:03:33;94815.25;;;8.18;94.07
12793;BME280;6460;42.684;23.260;2024-03-17T01:06:03;94822.47;;;7.93;95.77
12793;BME280;6460;42.684;23.260;2024-03-17T01:08:33;94822.03;;;8.04;95.43
12793;BME280;6460;42.684;23.260;2024-03-17T01:10:59;94821.94;;;8.12;94.72
12793;BME280;6460;42.684;23.260;2024-03-17T01:13:28;94819.69;;;8.02;95.12
12793;BME280;6460;42.684;23.260;2024-03-17T01:15:54;94821.25;;;7.91;94.63
12793;BME280;6460;42.684;23.260;2024-03-17T01:18:22;94823.25;;;7.94;95.22
12793;BME280;6460;42.684;23.260;2024-03-17T01:20:48;94822.47;;;7.93;95.29
12793;BME280;6460;42.684;23.260;2024-03-17T01:23:22;94821.66;;;7.81;95.74
12793;BME280;6460;42.684;23.260;2024-03-17T01:25:48;94825.03;;;7.90;95.98
12793;BME280;6460;42.684;23.260;2024-03-17T01:28:17;94822.88;;;7.83;96.60
12793;BME280;6460;42.684;23.260;2024-03-17T01:30:46;94824.78;;;7.83;96.57
12793;BME280;6460;42.684;23.260;2024-03-17T01:33:15;94818.53;;;7.79;96.85
12793;BME280;6460;42.684;23.260;2024-03-17T01:35:54;94815.09;;;7.78;96.91
12793;BME280;6460;42.684;23.260;2024-03-17T01:38:30;94821.53;;;7.65;97.21
12793;BME280;6460;42.684;23.260;2024-03-17T01:40:58;94814.31;;;7.78;97.35
12793;BME280;6460;42.684;23.260;2024-03-17T01:43:25;94816.31;;;7.81;96.73
12793;BME280;6460;42.684;23.260;2024-03-17T01:45:56;94814.50;;;7.85;96.84
12793;BME280;6460;42.684;23.260;2024-03-17T01:48:25;94817.09;;;7.81;96.97
12793;BME280;6460;42.684;23.260;2024-03-17T01:50:55;94812.75;;;7.44;98.49
12793;BME280;6460;42.684;23.260;2024-03-17T01:53:36;94815.47;;;7.56;98.59
12793;BME280;6460;42.684;23.260;2024-03-17T01:56:04;94818.19;;;7.68;98.52
12793;BME280;6460;42.684;23.260;2024-03-17T01:58:33;94819.84;;;7.73;98.44
12793;BME280;6460;42.684;23.260;2024-03-17T02:01:01;94816.72;;;7.71;98.05
12793;BME280;6460;42.684;23.260;2024-03-17T02:03:32;94816.00;;;7.50;98.13
12793;BME280;6460;42.684;23.260;2024-03-17T02:06:02;94816.66;;;7.47;98.35
12793;BME280;6460;42.684;23.260;2024-03-17T02:08:46;94810.88;;;7.57;98.90
12793;BME280;6460;42.684;23.260;2024-03-17T02:11:26;94813.91;;;7.55;99.46
12793;BME280;6460;42.684;23.260;2024-03-17T02:13:55;94811.88;;;7.52;99.43
12793;BME280;6460;42.684;23.260;2024-03-17T02:16:27;94804.13;;;7.59;98.32
12793;BME280;6460;42.684;23.260;2024-03-17T02:18:57;94814.00;;;7.47;99.57
12793;BME280;6460;42.684;23.260;2024-03-17T02:21:25;94817.97;;;7.40;100.00
12793;BME280;6460;42.684;23.260;2024-03-17T02:23:56;94813.88;;;7.43;100.00
12793;BME280;6460;42.684;23.260;2024-03-17T02:26:26;94820.16;;;7.59;99.73
12793;BME280;6460;42.684;23.260;2024-03-17T02:28:52;94822.16;;;7.29;99.88
12793;BME280;6460;42.684;23.260;2024-03-17T02:31:20;94824.84;;;7.29;100.00
12793;BME280;6460;42.684;23.260;2024-03-17T02:33:48;94819.53;;;7.41;100.00
12793;BME280;6460;42.684;23.260;2024-03-17T02:36:16;94819.53;;;7.41;100.00
12793;BME280;6460;42.684;23.260;2024-03-17T02:38:43;94816.16;;;7.32;100.00
12793;BME280;6460;42.684;23.260;2024-03-17T02:41:32;94808.16;;;7.12;100.00
12793;BME280;6460;42.684;23.260;2024-03-17T02:44:00;94815.25;;;7.28;100.00
12793;BME280;6460;42.684;23.260;2024-03-17T02:46:33;94807.84;;;7.13;100.00
12793;BME280;6460;42.684;23.260;2024-03-17T02:49:00;94814.19;;;7.41;100.00
12793;BME280;6460;42.684;23.260;2024-03-17T02:51:29;94810.56;;;7.25;99.54
12793;BME280;6460;42.684;23.260;2024-03-17T02:53:59;94810.72;;;6.87;100.00
12793;BME280;6460;42.684;23.260;2024-03-17T02:56:29;94813.91;;;6.81;100.00
12793;BME280;6460;42.684;23.260;2024-03-17T02:58:56;94811.50;;;6.88;100.00
12793;BME280;6460;42.684;23.260;2024-03-17T03:01:25;94815.63;;;6.56;100.00
12793;BME280;6460;42.684;23.260;2024-03-17T03:03:52;94821.34;;;6.46;100.00
12793;BME280;6460;42.684;23.260;2024-03-17T03:06:20;94812.19;;;6.26;100.00
12793;BME280;6460;42.684;23.260;2024-03-17T03:08:48;94808.88;;;6.59;100.00
12793;BME280;6460;42.684;23.260;2024-03-17T03:11:16;94802.50;;;6.72;100.00
12793;BME280;6460;42.684;23.260;2024-03-17T03:13:48;94809.81;;;6.54;100.00
12793;BME280;6460;42.684;23.260;2024-03-17T03:16:15;94808.00;;;6.46;100.00
12793;BME280;6460;42.684;23.260;2024-03-17T03:18:42;94800.97;;;6.12;100.00
12793;BME280;6460;42.684;23.260;2024-03-17T03:21:10;94801.50;;;6.56;100.00
12793;BME280;6460;42.684;23.260;2024-03-17T03:23:38;94807.97;;;6.75;100.00
12793;BME280;6460;42.684;23.260;2024-03-17T03:26:05;94803.16;;;6.69;100.00
12793;BME280;6460;42.684;23.260;2024-03-17T03:28:35;94804.22;;;6.47;100.00
12793;BME280;6460;42.684;23.260;2024-03-17T03:31:06;94803.41;;;6.76;100.00
12793;BME280;6460;42.684;23.260;2024-03-17T03:33:33;94808.25;;;6.82;100.00
12793;BME280;6460;42.684;23.260;2024-03-17T03:36:07;94816.84;;;6.88;100.00
12793;BME280;6460;42.684;23.260;2024-03-17T03:38:35;94802.63;;;6.96;100.00
12793;BME280;6460;42.684;23.260;2024-03-17T03:41:07;94815.53;;;6.94;100.00
12793;BME280;6460;42.684;23.260;2024-03-17T03:43:34;94804.91;;;7.06;100.00
12793;BME280;6460;42.684;23.260;2024-03-17T03:46:11;94814.38;;;7.04;100.00
12793;BME280;6460;42.684;23.260;2024-03-17T03:48:41;94814.34;;;6.83;100.00
12793;BME280;6460;42.684;23.260;2024-03-17T03:51:10;94827.25;;;6.81;100.00
12793;BME280;6460;42.684;23.260;2024-03-17T03:53:37;94819.97;;;6.69;100.00
12793;BME280;6460;42.684;23.260;2024-03-17T03:56:08;94826.19;;;6.73;100.00
12793;BME280;6460;42.684;23.260;2024-03-17T03:58:37;94819.31;;;6.72;100.00
12793;BME280;6460;42.684;23.260;2024-03-17T04:01:11;94825.59;;;6.47;100.00
12793;BME280;6460;42.684;23.260;2024-03-17T04:03:47;94826.31;;;6.27;100.00
12793;BME280;6460;42.684;23.260;2024-03-17T04:06:15;94832.59;;;6.22;100.00
12793;BME280;6460;42.684;23.260;2024-03-17T04:08:42;94836.06;;;6.23;100.00
12793;BME280;6460;42.684;23.260;2024-03-17T04:11:10;94847.28;;;6.08;100.00
12793;BME280;6460;42.684;23.260;2024-03-17T04:13:39;94843.38;;;6.05;100.00
12793;BME280;6460;42.684;23.260;2024-03-17T04:16:08;94845.84;;;6.10;100.00
12793;BME280;6460;42.684;23.260;2024-03-17T04:18:36;94853.47;;;6.29;100.00
12793;BME280;6460;42.684;23.260;2024-03-17T04:21:05;94845.19;;;6.51;100.00
12793;BME280;6460;42.684;23.260;2024-03-17T04:23:33;94849.75;;;6.21;100.00
12793;BME280;6460;42.684;23.260;2024-03-17T04:26:01;94851.66;;;6.42;100.00
12793;BME280;6460;42.684;23.260;2024-03-17T04:28:28;94850.63;;;6.25;100.00
12793;BME280;6460;42.684;23.260;2024-03-17T04:31:03;94860.81;;;6.41;100.00
12793;BME280;6460;42.684;23.260;2024-03-17T04:33:32;94860.28;;;6.47;100.00
12793;BME280;6460;42.684;23.260;2024-03-17T04:36:00;94866.69;;;6.55;100.00
12793;BME280;6460;42.684;23.260;2024-03-17T04:38:29;94865.34;;;6.69;100.00
12793;BME280;6460;42.684;23.260;2024-03-17T04:41:00;94865.34;;;6.69;100.00
12793;BME280;6460;42.684;23.260;2024-03-17T04:43:32;94871.84;;;6.60;100.00
12793;BME280;6460;42.684;23.260;2024-03-17T04:46:02;94871.03;;;6.30;100.00
12793;BME280;6460;42.684;23.260;2024-03-17T04:48:43;94871.72;;;6.18;100.00
12793;BME280;6460;42.684;23.260;2024-03-17T04:51:15;94877.47;;;6.37;100.00
12793;BME280;6460;42.684;23.260;2024-03-17T04:53:43;94878.44;;;6.24;100.00
12793;BME280;6460;42.684;23.260;2024-03-17T04:56:09;94886.59;;;6.28;100.00
12793;BME280;6460;42.684;23.260;2024-03-17T04:58:36;94885.56;;;6.12;100.00
12793;BME280;6460;42.684;23.260;2024-03-17T05:01:07;94889.13;;;6.24;100.00
12793;BME280;6460;42.684;23.260;2024-03-17T05:03:36;94891.53;;;6.47;100.00
12793;BME280;6460;42.684;23.260;2024-03-17T05:06:05;94890.63;;;6.43;100.00
12793;BME280;6460;42.684;23.260;2024-03-17T05:08:33;94895.03;;;6.68;100.00
12793;BME280;6460;42.684;23.260;2024-03-17T05:11:03;94894.69;;;6.78;100.00
12793;BME280;6460;42.684;23.260;2024-03-17T05:13:32;94903.75;;;6.85;100.00
12793;BME280;6460;42.684;23.260;2024-03-17T05:16:00;94909.63;;;7.00;100.00
12793;BME280;6460;42.684;23.260;2024-03-17T05:18:29;94910.56;;;7.04;100.00
12793;BME280;6460;42.684;23.260;2024-03-17T05:21:02;94910.78;;;6.90;100.00
12793;BME280;6460;42.684;23.260;2024-03-17T05:23:33;94917.75;;;6.53;100.00
12793;BME280;6460;42.684;23.260;2024-03-17T05:26:17;94914.75;;;6.55;100.00
12793;BME280;6460;42.684;23.260;2024-03-17T05:28:45;94916.09;;;6.69;100.00
12793;BME280;6460;42.684;23.260;2024-03-17T05:31:12;94920.66;;;6.69;100.00
12793;BME280;6460;42.684;23.260;2024-03-17T05:33:43;94917.78;;;7.03;100.00
12793;BME280;6460;42.684;23.260;2024-03-17T05:36:13;94918.13;;;7.22;100.00
12793;BME280;6460;42.684;23.260;2024-03-17T05:38:40;94919.19;;;7.30;100.00
12793;BME280;6460;42.684;23.260;2024-03-17T05:41:09;94916.97;;;7.53;100.00
12793;BME280;6460;42.684;23.260;2024-03-17T05:43:37;94910.34;;;7.71;100.00
12793;BME280;6460;42.684;23.260;2024-03-17T05:46:06;94904.78;;;7.76;100.00
12793;BME280;6460;42.684;23.260;2024-03-17T05:48:36;94912.72;;;7.52;100.00
12793;BME280;6460;42.684;23.260;2024-03-17T05:51:04;94914.75;;;7.55;100.00
12793;BME280;6460;42.684;23.260;2024-03-17T05:53:36;94905.06;;;7.95;100.00
12793;BME280;6460;42.684;23.260;2024-03-17T05:56:06;94904.47;;;8.10;98.94
12793;BME280;6460;42.684;23.260;2024-03-17T05:58:35;94899.41;;;8.29;97.88
12793;BME280;6460;42.684;23.260;2024-03-17T06:01:04;94908.56;;;8.40;97.01
12793;BME280;6460;42.684;23.260;2024-03-17T06:03:34;94906.13;;;8.60;96.47
12793;BME280;6460;42.684;23.260;2024-03-17T06:06:02;94906.47;;;8.58;97.38
12793;BME280;6460;42.684;23.260;2024-03-17T06:08:30;94916.63;;;8.77;96.74
12793;BME280;6460;42.684;23.260;2024-03-17T06:11:00;94913.03;;;8.97;93.96
12793;BME280;6460;42.684;23.260;2024-03-17T06:13:29;94914.38;;;9.03;93.05
12793;BME280;6460;42.684;23.260;2024-03-17T06:16:02;94917.75;;;9.12;93.35
12793;BME280;6460;42.684;23.260;2024-03-17T06:18:31;94916.38;;;9.18;93.17
12793;BME280;6460;42.684;23.260;2024-03-17T06:20:58;94916.03;;;9.20;93.29
12793;BME280;6460;42.684;23.260;2024-03-17T06:23:25;94923.63;;;9.30;92.57
12793;BME280;6460;42.684;23.260;2024-03-17T06:25:54;94917.44;;;9.41;91.91
12793;BME280;6460;42.684;23.260;2024-03-17T06:28:23;94922.16;;;9.44;91.09
12793;BME280;6460;42.684;23.260;2024-03-17T06:30:56;94932.31;;;9.39;91.03
12793;BME280;6460;42.684;23.260;2024-03-17T06:33:27;94930.41;;;9.39;90.91
12793;BME280;6460;42.684;23.260;2024-03-17T06:35:55;94932.41;;;9.42;90.06
12793;BME280;6460;42.684;23.260;2024-03-17T06:38:25;94939.13;;;9.36;89.15
12793;BME280;6460;42.684;23.260;2024-03-17T06:40:52;94936.63;;;9.16;88.20
12793;BME280;6460;42.684;23.260;2024-03-17T06:43:26;94941.84;;;9.00;88.64
12793;BME280;6460;42.684;23.260;2024-03-17T06:46:12;94942.31;;;9.02;89.08
12793;BME280;6460;42.684;23.260;2024-03-17T06:48:52;94941.84;;;9.00;89.11
12793;BME280;6460;42.684;23.260;2024-03-17T06:51:26;94939.19;;;9.12;89.36
12793;BME280;6460;42.684;23.260;2024-03-17T06:54:23;94934.69;;;9.28;89.65
12793;BME280;6460;42.684;23.260;2024-03-17T06:56:51;94940.47;;;9.42;88.57
12793;BME280;6460;42.684;23.260;2024-03-17T06:59:35;94943.31;;;9.62;88.97
12793;BME280;6460;42.684;23.260;2024-03-17T07:02:07;94936.75;;;9.59;87.55
12793;BME280;6460;42.684;23.260;2024-03-17T07:04:39;94941.16;;;9.79;88.06
12793;BME280;6460;42.684;23.260;2024-03-17T07:07:16;94945.13;;;9.70;88.45
12793;BME280;6460;42.684;23.260;2024-03-17T07:09:52;94938.22;;;9.84;89.60
12793;BME280;6460;42.684;23.260;2024-03-17T07:12:21;94937.38;;;10.08;88.35
12793;BME280;6460;42.684;23.260;2024-03-17T07:14:57;94943.41;;;10.33;87.62
12793;BME280;6460;42.684;23.260;2024-03-17T07:17:24;94943.06;;;10.50;86.12
12793;BME280;6460;42.684;23.260;2024-03-17T07:19:52;94943.25;;;10.41;84.86
12793;BME280;6460;42.684;23.260;2024-03-17T07:22:21;94942.56;;;10.60;83.89
12793;BME280;6460;42.684;23.260;2024-03-17T07:24:52;94942.47;;;10.72;83.42
12793;BME280;6460;42.684;23.260;2024-03-17T07:27:22;94945.09;;;10.69;84.16
12793;BME280;6460;42.684;23.260;2024-03-17T07:29:52;94944.84;;;10.58;83.48
12793;BME280;6460;42.684;23.260;2024-03-17T07:32:25;94951.59;;;10.52;83.02
12793;BME280;6460;42.684;23.260;2024-03-17T07:35:10;94950.53;;;10.72;83.46
12793;BME280;6460;42.684;23.260;2024-03-17T07:37:40;94945.88;;;10.85;83.37
12793;BME280;6460;42.684;23.260;2024-03-17T07:40:08;94940.66;;;10.92;83.54
12793;BME280;6460;42.684;23.260;2024-03-17T07:42:36;94945.09;;;11.00;83.36
12793;BME280;6460;42.684;23.260;2024-03-17T07:45:04;94944.72;;;11.01;83.48
12793;BME280;6460;42.684;23.260;2024-03-17T07:47:33;94949.59;;;10.96;83.40
12793;BME280;6460;42.684;23.260;2024-03-17T07:50:05;94946.75;;;10.89;83.50
12793;BME280;6460;42.684;23.260;2024-03-17T07:52:33;94949.59;;;10.96;83.28
12793;BME280;6460;42.684;23.260;2024-03-17T07:58:44;94945.09;;;10.84;83.36
12793;BME280;6460;42.684;23.260;2024-03-17T08:01:17;94952.22;;;10.77;83.12
12793;BME280;6460;42.684;23.260;2024-03-17T08:17:19;94945.78;;;10.97;82.01
12793;BME280;6460;42.684;23.260;2024-03-17T08:19:47;94947.88;;;10.88;82.31
12793;BME280;6460;42.684;23.260;2024-03-17T08:22:14;94942.75;;;10.98;81.67
12793;BME280;6460;42.684;23.260;2024-03-17T08:24:41;94939.03;;;11.03;81.27
12793;BME280;6460;42.684;23.260;2024-03-17T08:30:02;94949.88;;;11.41;78.49
12793;BME280;6460;42.684;23.260;2024-03-17T08:32:31;94936.06;;;11.78;76.45
12793;BME280;6460;42.684;23.260;2024-03-17T08:34:58;94934.69;;;11.84;76.38
12793;BME280;6460;42.684;23.260;2024-03-17T08:37:28;94939.06;;;12.11;75.31
12793;BME280;6460;42.684;23.260;2024-03-17T08:39:55;94937.84;;;12.28;74.65
12793;BME280;6460;42.684;23.260;2024-03-17T08:42:22;94930.19;;;12.52;73.60
12793;BME280;6460;42.684;23.260;2024-03-17T08:44:49;94923.97;;;12.71;72.01
12793;BME280;6460;42.684;23.260;2024-03-17T08:47:16;94926.00;;;12.78;73.02
12793;BME280;6460;42.684;23.260;2024-03-17T08:49:45;94918.88;;;12.89;72.54
12793;BME280;6460;42.684;23.260;2024-03-17T08:52:12;94915.81;;;13.13;71.48
12793;BME280;6460;42.684;23.260;2024-03-17T08:54:40;94915.38;;;13.37;70.87
12793;BME280;6460;42.684;23.260;2024-03-17T08:57:08;94903.94;;;13.73;68.16
12793;BME280;6460;42.684;23.260;2024-03-17T08:59:35;94904.66;;;13.70;66.76
12793;BME280;6460;42.684;23.260;2024-03-17T09:02:02;94905.53;;;12.99;69.36
12793;BME280;6460;42.684;23.260;2024-03-17T09:04:31;94893.38;;;13.09;70.29
12793;BME280;6460;42.684;23.260;2024-03-17T09:07:00;94900.94;;;13.82;68.65
12793;BME280;6460;42.684;23.260;2024-03-17T09:09:29;94901.22;;;14.03;63.52
12793;BME280;6460;42.684;23.260;2024-03-17T09:11:56;94902.22;;;14.25;62.09
12793;BME280;6460;42.684;23.260;2024-03-17T09:14:23;94891.50;;;14.32;58.31
12793;BME280;6460;42.684;23.260;2024-03-17T09:16:50;94888.31;;;14.26;59.19
12793;BME280;6460;42.684;23.260;2024-03-17T09:19:18;94891.91;;;14.34;58.73
12793;BME280;6460;42.684;23.260;2024-03-17T09:21:45;94892.31;;;14.36;55.94
12793;BME280;6460;42.684;23.260;2024-03-17T09:24:14;94892.22;;;14.29;57.30
12793;BME280;6460;42.684;23.260;2024-03-17T09:26:42;94887.94;;;14.61;54.92
12793;BME280;6460;42.684;23.260;2024-03-17T09:29:09;94884.16;;;14.73;55.18
12793;BME280;6460;42.684;23.260;2024-03-17T09:31:36;94875.56;;;14.60;53.47
12793;BME280;6460;42.684;23.260;2024-03-17T09:34:03;94881.66;;;14.98;53.36
12793;BME280;6460;42.684;23.260;2024-03-17T09:36:30;94870.44;;;14.96;53.12
12793;BME280;6460;42.684;23.260;2024-03-17T09:38:58;94869.00;;;15.09;54.36
12793;BME280;6460;42.684;23.260;2024-03-17T09:41:27;94869.50;;;15.32;51.92
12793;BME280;6460;42.684;23.260;2024-03-17T09:43:56;94868.94;;;15.02;52.17
12793;BME280;6460;42.684;23.260;2024-03-17T09:46:24;94863.19;;;15.75;47.12
12793;BME280;6460;42.684;23.260;2024-03-17T09:48:53;94864.81;;;15.91;46.84
12793;BME280;6460;42.684;23.260;2024-03-17T09:51:21;94866.03;;;16.11;46.16
12793;BME280;6460;42.684;23.260;2024-03-17T09:53:49;94856.41;;;16.38;42.91
12793;BME280;6460;42.684;23.260;2024-03-17T09:56:17;94850.19;;;16.27;41.17
12793;BME280;6460;42.684;23.260;2024-03-17T09:58:47;94850.22;;;16.30;40.78
12793;BME280;6460;42.684;23.260;2024-03-17T10:01:15;94854.84;;;16.30;42.50
12793;BME280;6460;42.684;23.260;2024-03-17T10:03:43;94847.50;;;16.27;41.90
12793;BME280;6460;42.684;23.260;2024-03-17T10:06:12;94860.13;;;15.84;43.25
12793;BME280;6460;42.684;23.260;2024-03-17T10:08:43;94859.34;;;15.80;43.92
12793;BME280;6460;42.684;23.260;2024-03-17T10:11:12;94856.63;;;15.73;45.12
12793;BME280;6460;42.684;23.260;2024-03-17T10:13:41;94858.34;;;15.37;45.94
12793;BME280;6460;42.684;23.260;2024-03-17T10:16:21;94868.66;;;15.17;45.59
12793;BME280;6460;42.684;23.260;2024-03-17T10:18:49;94866.22;;;15.02;45.76
12793;BME280;6460;42.684;23.260;2024-03-17T10:21:25;94861.13;;;14.90;45.61
12793;BME280;6460;42.684;23.260;2024-03-17T10:24:05;94863.53;;;14.54;45.35
12793;BME280;6460;42.684;23.260;2024-03-17T10:26:36;94851.00;;;14.83;45.93
12793;BME280;6460;42.684;23.260;2024-03-17T10:29:05;94855.19;;;15.28;44.44
12793;BME280;6460;42.684;23.260;2024-03-17T10:31:38;94854.81;;;15.29;45.46
12793;BME280;6460;42.684;23.260;2024-03-17T10:34:12;94856.06;;;15.46;46.26
12793;BME280;6460;42.684;23.260;2024-03-17T10:36:41;94861.47;;;15.43;47.10
12793;BME280;6460;42.684;23.260;2024-03-17T10:39:24;94858.31;;;15.33;47.27
12793;BME280;6460;42.684;23.260;2024-03-17T10:41:59;94857.16;;;15.38;47.97
12793;BME280;6460;42.684;23.260;2024-03-17T10:44:27;94857.59;;;15.44;47.92
12793;BME280;6460;42.684;23.260;2024-03-17T10:46:58;94861.38;;;15.25;47.73
12793;BME280;6460;42.684;23.260;2024-03-17T10:49:29;94854.41;;;15.27;47.06
12793;BME280;6460;42.684;23.260;2024-03-17T10:51:59;94848.56;;;15.25;47.30
12793;BME280;6460;42.684;23.260;2024-03-17T10:54:27;94852.13;;;14.78;48.65
12793;BME280;6460;42.684;23.260;2024-03-17T10:56:57;94844.22;;;14.56;48.98
12793;BME280;6460;42.684;23.260;2024-03-17T10:59:39;94852.66;;;14.98;47.13
12793;BME280;6460;42.684;23.260;2024-03-17T11:02:20;94840.44;;;15.25;45.75
12793;BME280;6460;42.684;23.260;2024-03-17T11:04:51;94844.16;;;15.61;45.61
12793;BME280;6460;42.684;23.260;2024-03-17T11:07:18;94835.88;;;15.33;45.10
12793;BME280;6460;42.684;23.260;2024-03-17T11:09:47;94831.03;;;15.02;45.44
12793;BME280;6460;42.684;23.260;2024-03-17T11:12:45;94844.69;;;15.23;45.52
12793;BME280;6460;42.684;23.260;2024-03-17T11:15:41;94835.47;;;15.27;46.07
12793;BME280;6460;42.684;23.260;2024-03-17T11:31:56;94823.47;;;15.32;39.86
12793;BME280;6460;42.684;23.260;2024-03-17T11:45:01;94803.28;;;16.09;39.05
12793;BME280;6460;42.684;23.260;2024-03-17T12:11:39;94806.97;;;14.35;42.22
12793;BME280;6460;42.684;23.260;2024-03-17T12:21:12;94802.44;;;14.09;47.05
12793;BME280;6460;42.684;23.260;2024-03-17T12:52:52;94786.06;;;13.95;55.24
12793;BME280;6460;42.684;23.260;2024-03-17T12:55:19;94787.03;;;14.13;55.04
12793;BME280;6460;42.684;23.260;2024-03-17T12:58:08;94796.09;;;13.95;57.48
12793;BME280;6460;42.684;23.260;2024-03-17T13:00:59;94798.44;;;13.96;57.88
12793;BME280;6460;42.684;23.260;2024-03-17T13:03:28;94785.69;;;13.93;56.11
12793;BME280;6460;42.684;23.260;2024-03-17T13:05:57;94786.56;;;13.67;57.89
12793;BME280;6460;42.684;23.260;2024-03-17T13:08:26;94782.28;;;13.66;58.03
12793;BME280;6460;42.684;23.260;2024-03-17T13:10:53;94780.69;;;13.58;59.65
12793;BME280;6460;42.684;23.260;2024-03-17T13:13:20;94784.91;;;13.56;58.46
12793;BME280;6460;42.684;23.260;2024-03-17T13:15:47;94781.50;;;13.62;59.64
12793;BME280;6460;42.684;23.260;2024-03-17T13:18:17;94777.31;;;13.68;59.87
12793;BME280;6460;42.684;23.260;2024-03-17T13:20:46;94786.53;;;13.64;61.00
12793;BME280;6460;42.684;23.260;2024-03-17T13:23:15;94777.41;;;13.42;59.19
12793;BME280;6460;42.684;23.260;2024-03-17T13:25:44;94786.44;;;13.57;60.97
12793;BME280;6460;42.684;23.260;2024-03-17T13:28:11;94778.91;;;13.10;63.28
12793;BME280;6460;42.684;23.260;2024-03-17T13:30:38;94778.13;;;13.39;64.08
12793;BME280;6460;42.684;23.260;2024-03-17T13:33:05;94786.00;;;13.51;63.64
12793;BME280;6460;42.684;23.260;2024-03-17T13:35:36;94785.59;;;13.49;63.71
12793;BME280;6460;42.684;23.260;2024-03-17T13:38:05;94773.31;;;13.55;63.53
12793;BME280;6460;42.684;23.260;2024-03-17T13:40:33;94782.47;;;13.47;64.12
12793;BME280;6460;42.684;23.260;2024-03-17T13:43:02;94781.97;;;13.08;65.82
12793;BME280;6460;42.684;23.260;2024-03-17T13:45:32;94782.63;;;13.02;66.30
12793;BME280;6460;42.684;23.260;2024-03-17T13:48:05;94779.88;;;13.24;67.38
12793;BME280;6460;42.684;23.260;2024-03-17T13:50:34;94772.75;;;13.09;68.99
12793;BME280;6460;42.684;23.260;2024-03-17T13:53:01;94779.06;;;13.20;68.70
12793;BME280;6460;42.684;23.260;2024-03-17T13:55:53;94772.66;;;13.06;69.41
12793;BME280;6460;42.684;23.260;2024-03-17T14:05:15;94758.81;;;13.07;70.66
12793;BME280;6460;42.684;23.260;2024-03-17T14:07:43;94758.97;;;13.18;70.25
12793;BME280;6460;42.684;23.260;2024-03-17T14:10:12;94761.94;;;13.39;69.96
12793;BME280;6460;42.684;23.260;2024-03-17T16:01:05;94741.78;;;13.66;64.26
12793;BME280;6460;42.684;23.260;2024-03-17T16:03:38;94734.47;;;13.30;66.16
12793;BME280;6460;42.684;23.260;2024-03-17T16:09:48;94744.09;;;13.31;68.36
12793;BME280;6460;42.684;23.260;2024-03-17T16:12:29;94745.22;;;13.27;69.44
12793;BME280;6460;42.684;23.260;2024-03-17T16:18:33;94748.00;;;12.78;71.83
12793;BME280;6460;42.684;23.260;2024-03-17T16:21:05;94756.50;;;12.80;72.13
12793;BME280;6460;42.684;23.260;2024-03-17T16:23:38;94755.47;;;12.88;71.81
12793;BME280;6460;42.684;23.260;2024-03-17T16:26:19;94752.50;;;12.96;71.99
12793;BME280;6460;42.684;23.260;2024-03-17T16:28:54;94754.41;;;12.66;73.33
12793;BME280;6460;42.684;23.260;2024-03-17T16:31:57;94758.63;;;12.63;73.44
12793;BME280;6460;42.684;23.260;2024-03-17T16:34:53;94764.19;;;12.51;74.32
12793;BME280;6460;42.684;23.260;2024-03-17T16:44:08;94766.09;;;12.77;73.70
12793;BME280;6460;42.684;23.260;2024-03-17T18:04:50;94832.66;;;11.25;86.62
12793;BME280;6460;42.684;23.260;2024-03-17T18:07:47;94839.66;;;11.10;87.42
12793;BME280;6460;42.684;23.260;2024-03-17T18:10:29;94836.53;;;11.08;86.38
12793;BME280;6460;42.684;23.260;2024-03-17T18:12:59;94845.09;;;10.94;87.19
12793;BME280;6460;42.684;23.260;2024-03-17T18:15:55;94835.75;;;10.73;87.82
12793;BME280;6460;42.684;23.260;2024-03-17T18:18:33;94836.31;;;10.82;88.26
12793;BME280;6460;42.684;23.260;2024-03-17T21:34:26;94823.75;;;9.21;93.80
12793;BME280;6460;42.684;23.260;2024-03-17T21:36:54;94819.13;;;9.33;93.23
12793;BME280;6460;42.684;23.260;2024-03-17T21:39:25;94811.81;;;9.18;93.91
12793;BME280;6460;42.684;23.260;2024-03-17T21:41:55;94820.06;;;9.25;93.51
12793;BME280;6460;42.684;23.260;2024-03-17T21:44:36;94817.69;;;9.24;93.01
12793;BME280;6460;42.684;23.260;2024-03-17T21:47:07;94813.38;;;9.07;93.87